Time;durP1;ratioP1;P1;durP2;ratioP2;P2;SDS_P1;SDS_P2;PMS_P1;PMS_P2;Temp;Humidity;BMP_temperature;BMP_pressure;BME280_temperature;BME280_humidity;BME280_pressure;Samples;Min_cycle;Max_cycle;Signal;HPM_P1;HPM_P2
2022/05/20 00:00:43;;;;;;;;;2.00;0.00;;;;;21.51;42.96;101755.69;5065389;28;45434;-58
2022/05/20 00:03:09;;;;;;;;;1.00;1.00;;;;;21.47;42.11;101754.19;5063446;28;47309;-58
2022/05/20 00:05:34;;;;;;;;;1.25;0.75;;;;;21.42;42.32;101748.31;5053693;28;45807;-58
2022/05/20 00:07:59;;;;;;;;;1.67;1.67;;;;;21.35;42.38;101750.66;5053782;28;48417;-58
2022/05/20 00:10:25;;;;;;;;;0.00;0.00;;;;;21.28;42.41;101742.19;5059553;28;56440;-58
2022/05/20 00:12:50;;;;;;;;;1.33;1.00;;;;;21.29;42.43;101740.34;5063228;28;46069;-58
2022/05/20 00:15:18;;;;;;;;;0.00;0.00;;;;;21.37;42.43;101740.59;5058478;28;45329;-57
2022/05/20 00:17:44;;;;;;;;;0.33;0.00;;;;;21.42;41.84;101741.06;5061075;28;45482;-58
2022/05/20 00:20:11;;;;;;;;;1.00;1.00;;;;;21.48;42.06;101735.16;5067885;28;45511;-58
2022/05/20 00:22:38;;;;;;;;;2.00;0.00;;;;;21.49;41.27;101731.44;5063697;28;46637;-58
2022/05/20 00:27:48;;;;;;;;;2.25;0.00;;;;;21.45;41.01;101735.41;5066510;28;45529;-57
2022/05/20 00:30:14;;;;;;;;;1.67;1.00;;;;;21.44;41.08;101730.97;5065420;28;62997;-58
2022/05/20 00:32:40;;;;;;;;;0.67;0.00;;;;;21.42;40.67;101724.84;5062959;28;63174;-58
2022/05/20 00:35:06;;;;;;;;;1.67;1.00;;;;;21.38;41.24;101734.19;5062206;28;45923;-58
2022/05/20 00:37:32;;;;;;;;;0.67;0.67;;;;;21.35;40.75;101734.41;5071408;28;45458;-58
2022/05/20 00:39:57;;;;;;;;;0.67;0.33;;;;;21.30;40.68;101732.09;5065346;28;45455;-57
2022/05/20 00:42:23;;;;;;;;;1.00;1.00;;;;;21.29;40.52;101733.09;5066765;28;67022;-58
2022/05/20 00:44:48;;;;;;;;;0.00;0.00;;;;;21.35;40.76;101733.56;5063943;28;64412;-58
2022/05/20 00:47:14;;;;;;;;;2.00;1.00;;;;;21.31;40.26;101735.66;5065938;28;45368;-58
2022/05/20 00:49:49;;;;;;;;;0.67;0.67;;;;;21.19;40.84;101726.69;5060488;28;45246;-57
2022/05/20 00:52:17;;;;;;;;;0.50;0.50;;;;;21.14;40.53;101732.47;5061389;28;46096;-58
2022/05/20 00:54:46;;;;;;;;;1.00;0.00;;;;;21.15;40.54;101730.63;5070514;28;45370;-58
2022/05/20 00:57:17;;;;;;;;;2.00;1.00;;;;;21.16;40.51;101724.25;5053863;28;45322;-57
2022/05/20 00:59:48;;;;;;;;;2.67;1.00;;;;;21.17;40.81;101719.69;5060086;28;45430;-58
2022/05/20 01:02:17;;;;;;;;;1.00;1.00;;;;;21.14;41.13;101713.53;5047131;28;46247;-58
2022/05/20 01:04:43;;;;;;;;;1.00;1.00;;;;;21.18;40.56;101722.25;5065452;28;45513;-58
2022/05/20 01:07:09;;;;;;;;;0.33;0.33;;;;;21.13;40.82;101713.66;5067256;27;45402;-58
2022/05/20 01:09:36;;;;;;;;;0.33;0.33;;;;;21.16;40.89;101708.03;5038450;28;45386;-58
2022/05/20 01:12:02;;;;;;;;;1.25;0.00;;;;;21.19;40.96;101701.50;5053175;28;45441;-58
2022/05/20 01:14:27;;;;;;;;;1.00;0.67;;;;;21.17;39.94;101696.19;5061472;28;45387;-58
2022/05/20 01:16:53;;;;;;;;;0.33;0.33;;;;;21.12;40.63;101687.63;5065716;28;61139;-58
2022/05/20 01:19:28;;;;;;;;;1.67;0.00;;;;;21.11;40.23;101689.44;5048529;28;45465;-57
2022/05/20 01:21:54;;;;;;;;;1.33;0.33;;;;;21.09;40.00;101688.72;5063518;28;46083;-58
2022/05/20 01:24:19;;;;;;;;;0.00;0.00;;;;;21.04;40.25;101687.34;5065687;28;46564;-58
2022/05/20 01:26:44;;;;;;;;;2.00;0.00;;;;;20.97;40.11;101674.31;5066552;28;45442;-57
2022/05/20 01:29:10;;;;;;;;;0.00;0.00;;;;;20.98;39.98;101676.06;5066031;28;59965;-57
2022/05/20 01:31:35;;;;;;;;;0.00;0.00;;;;;21.00;40.47;101665.09;5063622;28;66110;-57
2022/05/20 01:34:00;;;;;;;;;0.67;0.67;;;;;21.01;40.05;101656.00;5064153;28;45280;-57
2022/05/20 01:36:26;;;;;;;;;1.00;1.00;;;;;21.05;40.39;101653.94;5063949;28;60743;-57
2022/05/20 01:38:53;;;;;;;;;2.00;0.00;;;;;21.07;40.37;101655.53;5065382;28;45541;-57
2022/05/20 01:41:28;;;;;;;;;1.00;1.00;;;;;21.06;39.84;101648.38;5064416;28;45570;-58
2022/05/20 01:43:53;;;;;;;;;0.00;0.00;;;;;21.05;39.78;101654.78;5065274;28;45555;-57
2022/05/20 01:46:21;;;;;;;;;1.00;1.00;;;;;21.02;39.81;101654.19;5067025;28;45481;-57
2022/05/20 01:48:57;;;;;;;;;1.00;1.00;;;;;20.97;39.80;101641.88;5062189;28;45910;-57
2022/05/20 01:51:35;;;;;;;;;0.33;0.00;;;;;20.97;39.94;101644.59;5059733;28;47030;-58
2022/05/20 01:54:07;;;;;;;;;0.33;0.33;;;;;20.98;40.34;101635.50;5050604;28;45389;-58
2022/05/20 01:56:42;;;;;;;;;0.00;0.00;;;;;20.99;39.76;101642.63;5061581;28;45397;-58
2022/05/20 01:59:12;;;;;;;;;0.00;0.00;;;;;21.03;40.11;101642.38;5058751;28;45381;-58
2022/05/20 02:01:45;;;;;;;;;0.00;0.00;;;;;21.02;39.82;101637.97;5064406;28;45407;-57
2022/05/20 02:04:17;;;;;;;;;1.33;0.67;;;;;21.02;40.11;101633.41;5063074;28;45421;-58
2022/05/20 02:06:46;;;;;;;;;2.00;0.00;;;;;21.02;39.85;101624.44;5041158;28;45431;-57
2022/05/20 02:09:23;;;;;;;;;0.67;0.67;;;;;20.97;39.76;101625.66;5041958;28;45553;-58
2022/05/20 02:11:55;;;;;;;;;0.00;0.00;;;;;20.90;40.18;101621.75;5051746;28;45394;-58
2022/05/20 02:14:26;;;;;;;;;0.00;0.00;;;;;20.91;40.43;101623.47;5059710;28;45879;-58
2022/05/20 02:17:02;;;;;;;;;1.00;1.00;;;;;20.91;39.95;101618.06;5063502;28;45501;-58
2022/05/20 02:19:40;;;;;;;;;1.00;0.67;;;;;20.92;40.04;101608.09;5062704;28;45322;-58
2022/05/20 02:22:10;;;;;;;;;1.67;1.00;;;;;20.94;40.07;101607.00;5043752;28;46229;-58
2022/05/20 02:24:37;;;;;;;;;4.00;1.00;;;;;20.94;40.46;101609.69;5063738;28;45505;-57
2022/05/20 02:27:06;;;;;;;;;2.67;0.00;;;;;20.96;40.73;101610.44;5042430;28;45398;-57
2022/05/20 02:29:50;;;;;;;;;0.00;0.00;;;;;20.95;40.15;101611.41;5058803;28;45296;-58
2022/05/20 02:32:24;;;;;;;;;2.00;0.00;;;;;20.94;40.21;101609.69;5061599;28;45394;-58
2022/05/20 02:34:50;;;;;;;;;0.33;0.33;;;;;20.93;40.46;101609.81;5036324;28;45257;-58
2022/05/20 02:37:32;;;;;;;;;2.00;1.00;;;;;20.91;40.53;101609.06;5058949;28;45343;-58
2022/05/20 02:39:58;;;;;;;;;1.00;1.00;;;;;20.86;40.83;101605.88;5067428;28;45483;-57
2022/05/20 02:42:26;;;;;;;;;2.00;2.00;;;;;20.84;40.63;101611.41;5061330;28;45406;-57
2022/05/20 02:44:51;;;;;;;;;2.33;0.33;;;;;20.80;40.63;101605.41;5055001;28;45561;-58
2022/05/20 02:47:17;;;;;;;;;0.00;0.00;;;;;20.78;40.90;101607.38;5061319;28;61623;-58
2022/05/20 02:49:42;;;;;;;;;1.00;1.00;;;;;20.76;41.04;101606.63;5063880;28;45474;-58
2022/05/20 02:52:08;;;;;;;;;1.00;1.00;;;;;20.72;41.00;101607.03;5064308;28;46087;-57
2022/05/20 02:54:34;;;;;;;;;0.33;0.33;;;;;20.64;41.42;101592.22;5066592;28;45717;-57
2022/05/20 02:57:00;;;;;;;;;2.00;1.67;;;;;20.61;41.37;101597.91;5065933;28;45501;-57
2022/05/20 03:04:53;;;;;;;;;2.00;0.00;;;;;20.66;41.70;101589.41;5064788;28;45831;-57
2022/05/20 03:07:18;;;;;;;;;1.00;1.00;;;;;20.60;41.78;101593.47;5063300;28;61468;-57
2022/05/20 03:09:44;;;;;;;;;1.00;1.00;;;;;20.56;42.28;101600.09;5063366;28;64311;-57
2022/05/20 03:12:13;;;;;;;;;0.67;0.33;;;;;20.59;42.53;101597.16;5064877;28;46056;-58
2022/05/20 03:14:38;;;;;;;;;1.00;0.33;;;;;20.60;42.25;101593.47;5059544;28;45285;-57
2022/05/20 03:17:04;;;;;;;;;2.00;1.67;;;;;20.53;42.52;101592.22;5058092;28;45465;-57
2022/05/20 03:19:30;;;;;;;;;1.00;1.00;;;;;20.45;42.92;101598.25;5057980;28;45580;-57
2022/05/20 03:22:00;;;;;;;;;1.00;1.00;;;;;20.39;43.10;101589.75;5061687;28;46395;-58
2022/05/20 03:24:26;;;;;;;;;3.00;3.00;;;;;20.36;43.29;101595.44;5054071;28;45320;-57
2022/05/20 03:26:51;;;;;;;;;2.00;2.00;;;;;20.31;43.58;101598.47;5057438;28;45328;-57
2022/05/20 03:29:17;;;;;;;;;1.00;1.00;;;;;20.30;43.96;101594.06;5057339;28;60934;-57
2022/05/20 03:31:43;;;;;;;;;4.00;1.00;;;;;20.29;43.51;101592.34;5064727;28;45954;-57
2022/05/20 03:34:09;;;;;;;;;2.67;1.00;;;;;20.29;43.85;101598.59;5055497;28;45415;-57
2022/05/20 03:36:37;;;;;;;;;1.00;1.00;;;;;20.30;43.61;101599.47;5058465;28;45410;-57
2022/05/20 03:39:03;;;;;;;;;2.67;1.00;;;;;20.32;44.13;101584.88;5054232;28;45213;-57
2022/05/20 03:41:30;;;;;;;;;3.00;1.00;;;;;20.37;44.17;101576.38;5069880;28;46288;-57
2022/05/20 03:43:55;;;;;;;;;1.67;1.67;;;;;20.37;44.26;101570.13;5058622;28;45276;-57
2022/05/20 03:46:21;;;;;;;;;2.00;1.00;;;;;20.32;44.21;101565.97;5057550;28;60284;-57
2022/05/20 03:48:46;;;;;;;;;4.00;1.00;;;;;20.28;44.25;101561.75;5051869;28;45599;-57
2022/05/20 03:51:13;;;;;;;;;2.00;1.67;;;;;20.25;44.24;101566.56;5057883;28;65939;-57
2022/05/20 03:53:39;;;;;;;;;2.00;2.00;;;;;20.23;44.40;101566.66;5056414;28;45315;-57
2022/05/20 03:56:05;;;;;;;;;0.67;0.67;;;;;20.08;44.94;101551.69;5061271;28;48951;-57
2022/05/20 03:58:31;;;;;;;;;4.00;2.67;;;;;20.00;45.15;101546.91;5055974;28;45280;-56
2022/05/20 04:03:42;;;;;;;;;2.00;2.00;;;;;20.04;45.42;101552.91;5046143;28;45490;-57
2022/05/20 04:06:07;;;;;;;;;2.00;1.00;;;;;20.04;45.75;101544.78;5061251;28;45237;-57
2022/05/20 04:08:32;;;;;;;;;2.00;1.33;;;;;20.04;45.33;101547.50;5060851;28;61542;-55
2022/05/20 04:10:58;;;;;;;;;3.00;2.00;;;;;20.06;45.25;101546.41;5053850;28;46920;-55
2022/05/20 04:13:23;;;;;;;;;3.00;1.33;;;;;20.07;45.73;101549.97;5056712;28;64178;-55
2022/05/20 04:15:49;;;;;;;;;2.00;2.00;;;;;20.01;45.82;101540.50;5060526;28;45375;-55
2022/05/20 04:18:15;;;;;;;;;1.00;1.00;;;;;19.91;46.19;101542.22;5056908;28;45335;-55
2022/05/20 04:20:40;;;;;;;;;2.00;2.00;;;;;19.87;46.69;101551.50;5060694;28;46148;-56
2022/05/20 04:23:05;;;;;;;;;2.33;2.00;;;;;19.85;46.64;101554.34;5064769;28;54687;-56
2022/05/20 04:25:31;;;;;;;;;7.00;1.67;;;;;19.84;46.71;101558.00;5061108;28;45951;-57
2022/05/20 04:27:56;;;;;;;;;5.33;2.00;;;;;19.85;46.74;101548.94;5049732;28;59557;-57
2022/05/20 04:30:22;;;;;;;;;1.67;1.67;;;;;19.85;46.95;101558.88;5061445;28;64879;-57
2022/05/20 04:32:47;;;;;;;;;5.00;3.00;;;;;19.86;46.90;101550.66;5064581;28;45454;-57
2022/05/20 04:35:12;;;;;;;;;3.00;3.00;;;;;19.88;46.63;101556.81;5060212;28;60282;-57
2022/05/20 04:37:38;;;;;;;;;2.00;2.00;;;;;19.90;46.78;101551.28;5060206;28;45312;-57
2022/05/20 04:40:03;;;;;;;;;4.67;2.33;;;;;19.94;46.97;101556.31;5060472;28;45887;-57
2022/05/20 04:48:00;;;;;;;;;3.67;3.67;;;;;20.06;46.81;101559.03;5052280;28;45408;-57
2022/05/20 04:50:25;;;;;;;;;4.00;3.00;;;;;20.08;46.99;101576.84;5064461;28;46350;-57
2022/05/20 04:52:50;;;;;;;;;2.00;2.00;;;;;20.11;47.43;101575.75;5068301;28;65408;-57
2022/05/20 04:55:16;;;;;;;;;3.33;3.00;;;;;20.12;47.20;101577.47;5059842;28;61923;-57
2022/05/20 04:57:47;;;;;;;;;5.33;4.00;;;;;20.15;47.23;101571.81;5058022;28;45494;-57
2022/05/20 05:00:27;;;;;;;;;3.33;3.00;;;;;20.22;47.31;101578.47;5051982;28;46099;-57
2022/05/20 05:02:53;;;;;;;;;3.00;3.00;;;;;20.29;47.58;101587.78;5063014;28;45628;-57
2022/05/20 05:05:21;;;;;;;;;6.67;4.00;;;;;20.31;47.66;101587.66;5060710;28;45536;-57
2022/05/20 05:07:49;;;;;;;;;3.33;2.00;;;;;20.27;47.85;101578.97;5061265;28;45430;-57
2022/05/20 05:10:18;;;;;;;;;2.33;2.33;;;;;20.29;47.71;101579.69;5063492;28;45473;-57
2022/05/20 05:12:43;;;;;;;;;2.67;2.67;;;;;20.30;47.98;101575.16;5063037;28;45501;-57
2022/05/20 05:15:11;;;;;;;;;4.00;4.00;;;;;20.30;47.42;101583.28;5059905;28;53825;-57
2022/05/20 05:20:23;;;;;;;;;2.67;2.00;;;;;20.28;47.73;101594.19;5063350;28;45381;-58
2022/05/20 05:22:49;;;;;;;;;4.33;2.00;;;;;20.28;47.92;101596.88;5061389;28;45421;-57
2022/05/20 05:25:15;;;;;;;;;3.67;3.67;;;;;20.29;48.22;101582.41;5059671;28;45517;-58
2022/05/20 05:27:40;;;;;;;;;3.00;3.00;;;;;20.33;48.10;101574.91;5063488;28;45371;-58
2022/05/20 05:30:07;;;;;;;;;5.00;3.00;;;;;20.34;47.82;101573.94;5061855;28;46231;-57
2022/05/20 05:32:34;;;;;;;;;4.00;3.00;;;;;20.32;48.00;101559.69;5060054;28;45558;-57
2022/05/20 05:35:00;;;;;;;;;6.00;3.00;;;;;20.32;47.76;101549.75;5049132;28;45364;-58
2022/05/20 05:37:25;;;;;;;;;5.00;4.00;;;;;20.32;48.13;101552.47;5060607;28;45565;-57
2022/05/20 05:39:51;;;;;;;;;4.00;2.00;;;;;20.31;48.14;101549.84;5059856;28;45431;-58
2022/05/20 05:42:16;;;;;;;;;2.67;2.67;;;;;20.30;48.09;101548.16;5055256;28;45753;-58
2022/05/20 05:44:42;;;;;;;;;6.00;4.00;;;;;20.31;48.24;101555.25;5058055;28;45438;-57
2022/05/20 05:47:07;;;;;;;;;5.00;3.00;;;;;20.29;48.34;101558.09;5057749;28;52921;-57
2022/05/20 05:49:32;;;;;;;;;4.00;3.00;;;;;20.30;48.67;101543.59;5056701;28;45930;-58
2022/05/20 05:51:58;;;;;;;;;4.33;3.33;;;;;20.29;48.57;101536.47;5068687;28;45323;-58
2022/05/20 05:54:23;;;;;;;;;5.00;3.00;;;;;20.27;48.52;101530.34;5059608;28;55867;-57
2022/05/20 05:56:49;;;;;;;;;4.67;4.00;;;;;20.23;48.74;101525.31;5055337;28;61345;-57
2022/05/20 05:59:14;;;;;;;;;3.67;3.67;;;;;20.16;49.43;101512.28;5052799;28;45701;-57
2022/05/20 06:01:40;;;;;;;;;3.00;3.00;;;;;20.15;49.54;101518.69;5060287;28;45915;-58
2022/05/20 06:04:05;;;;;;;;;3.67;3.67;;;;;20.14;49.44;101535.00;5059976;28;45687;-58
2022/05/20 06:06:30;;;;;;;;;6.67;4.00;;;;;20.14;50.20;101529.59;5068898;28;62059;-57
2022/05/20 06:08:56;;;;;;;;;6.00;6.00;;;;;20.14;50.58;101546.66;5056858;28;66430;-58
2022/05/20 06:11:21;;;;;;;;;6.67;5.00;;;;;20.17;51.18;101559.06;5062807;28;49248;-57
2022/05/20 06:13:46;;;;;;;;;4.33;1.00;;;;;20.19;52.20;101562.50;5058721;28;45610;-58
2022/05/20 06:16:21;;;;;;;;;2.33;2.33;;;;;20.19;52.78;101573.28;5055330;28;58822;-57
2022/05/20 06:18:47;;;;;;;;;7.00;6.00;;;;;20.16;52.92;101565.44;5045101;28;46322;-57
2022/05/20 06:21:13;;;;;;;;;4.67;3.33;;;;;20.13;52.73;101546.81;5062296;28;45463;-57
2022/05/20 06:23:38;;;;;;;;;4.00;4.00;;;;;20.12;52.99;101531.56;5063352;28;45624;-57
2022/05/20 06:26:03;;;;;;;;;7.33;5.67;;;;;20.10;53.47;101514.63;5060973;28;60176;-57
2022/05/20 06:28:30;;;;;;;;;5.33;4.67;;;;;20.09;53.61;101500.28;5064154;28;54833;-58
2022/05/20 06:30:56;;;;;;;;;6.00;5.00;;;;;20.08;54.06;101465.28;5061387;28;45843;-58
2022/05/20 06:33:22;;;;;;;;;6.67;5.00;;;;;19.95;54.27;101435.72;5062587;28;45540;-58
2022/05/20 06:41:15;;;;;;;;;8.00;6.67;;;;;19.78;54.89;101497.25;5064486;28;46741;-57
2022/05/20 06:43:40;;;;;;;;;4.67;4.67;;;;;19.80;54.96;101527.69;5070427;28;57810;-58
2022/05/20 06:46:05;;;;;;;;;7.67;5.00;;;;;19.83;54.68;101507.72;5055723;28;50783;-58
2022/05/20 06:48:52;;;;;;;;;5.67;3.67;;;;;19.88;55.53;101500.13;5064220;28;46241;-58
2022/05/20 06:51:20;;;;;;;;;7.00;5.67;;;;;19.91;55.51;101490.94;5067093;28;45823;-57
2022/05/20 06:53:46;;;;;;;;;8.00;7.00;;;;;19.94;55.61;101469.94;5064186;28;45460;-57
2022/05/20 06:56:12;;;;;;;;;7.00;6.00;;;;;19.94;56.11;101428.59;5061646;28;45653;-57
2022/05/20 06:58:37;;;;;;;;;5.67;5.67;;;;;19.87;56.34;101319.38;5063036;28;46226;-57
2022/05/20 07:01:03;;;;;;;;;7.67;7.33;;;;;19.70;57.85;101183.97;5068736;28;45308;-57
2022/05/20 07:03:29;;;;;;;;;8.33;8.00;;;;;19.39;57.23;101245.81;5058665;28;45440;-57
2022/05/20 07:05:55;;;;;;;;;15.00;10.33;;;;;19.24;58.06;101312.63;5055268;28;45885;-57
2022/05/20 07:08:21;;;;;;;;;9.33;8.67;;;;;19.21;57.60;101285.91;5051625;28;45814;-57
2022/05/20 07:10:46;;;;;;;;;9.33;8.67;;;;;19.18;57.76;101273.50;5064813;28;45371;-56
2022/05/20 07:13:12;;;;;;;;;11.67;9.33;;;;;19.16;57.91;101275.50;5056679;28;59727;-57
2022/05/20 07:15:38;;;;;;;;;25.67;21.33;;;;;19.18;57.61;101281.59;5055289;28;45315;-57
2022/05/20 07:18:03;;;;;;;;;21.00;15.67;;;;;19.13;58.20;101296.44;5058128;28;70071;-57
2022/05/20 07:20:28;;;;;;;;;16.67;16.67;;;;;19.11;58.43;101288.47;5063327;28;45564;-57
2022/05/20 07:22:54;;;;;;;;;15.33;14.33;;;;;19.14;58.36;101298.16;5063141;28;51082;-58
2022/05/20 07:25:19;;;;;;;;;23.33;19.67;;;;;19.19;58.80;101312.13;5064641;28;58898;-57
2022/05/20 07:27:45;;;;;;;;;19.33;16.33;;;;;19.28;58.68;101316.81;5065480;28;46295;-57
2022/05/20 07:30:12;;;;;;;;;11.67;9.67;;;;;19.43;58.55;101338.16;5067385;28;45556;-57
2022/05/20 07:32:37;;;;;;;;;10.33;9.00;;;;;19.50;58.88;101351.03;5065808;28;45454;-57
2022/05/20 07:35:03;;;;;;;;;10.67;9.67;;;;;19.58;58.54;101363.91;5065911;28;50128;-57
2022/05/20 07:37:29;;;;;;;;;22.67;17.33;;;;;19.68;58.57;101380.22;5065529;28;46923;-57
2022/05/20 07:39:54;;;;;;;;;11.00;8.33;;;;;19.78;58.49;101374.94;5067827;28;46724;-57
2022/05/20 07:42:19;;;;;;;;;9.33;8.67;;;;;19.82;58.14;101368.34;5065073;28;46031;-57
2022/05/20 07:44:45;;;;;;;;;11.67;6.67;;;;;19.85;58.22;101402.34;5066497;28;58695;-57
2022/05/20 07:47:10;;;;;;;;;9.00;7.00;;;;;19.89;57.92;101426.25;5067289;28;45965;-58
2022/05/20 07:49:35;;;;;;;;;8.33;8.00;;;;;19.92;58.06;101438.63;5066890;28;45523;-57
2022/05/20 07:52:03;;;;;;;;;10.00;10.00;;;;;19.95;58.03;101463.56;5065852;28;51159;-58
2022/05/20 07:54:31;;;;;;;;;9.33;9.00;;;;;19.99;57.74;101466.88;5065165;28;45576;-58
2022/05/20 07:57:00;;;;;;;;;11.33;10.00;;;;;20.01;57.93;101500.00;5053227;28;46095;-57
2022/05/20 07:59:30;;;;;;;;;11.33;10.67;;;;;20.05;57.89;101482.59;5064634;28;46808;-58
2022/05/20 08:01:56;;;;;;;;;13.33;10.33;;;;;20.06;58.65;101434.84;5047690;28;45300;-57
2022/05/20 08:07:09;;;;;;;;;16.67;13.67;;;;;19.88;58.50;101410.19;5065188;28;45487;-57
2022/05/20 08:09:36;;;;;;;;;15.00;13.33;;;;;19.83;58.98;101407.88;5066798;28;45470;-57
2022/05/20 08:12:02;;;;;;;;;12.00;11.67;;;;;19.85;59.32;101378.03;5062290;28;45502;-59
2022/05/20 08:14:28;;;;;;;;;13.00;11.33;;;;;19.88;59.48;101391.28;5064765;28;45277;-58
2022/05/20 08:16:56;;;;;;;;;16.33;11.67;;;;;19.91;59.23;101377.56;5063461;28;46340;-59
2022/05/20 08:19:22;;;;;;;;;13.00;9.33;;;;;19.90;59.25;101387.47;5069474;28;45427;-58
2022/05/20 08:21:47;;;;;;;;;18.00;14.67;;;;;19.92;59.53;101401.72;5057760;28;63197;-58
2022/05/20 08:24:12;;;;;;;;;17.00;16.00;;;;;19.94;59.37;101388.09;5060697;28;45218;-58
2022/05/20 08:26:38;;;;;;;;;17.67;14.00;;;;;19.93;59.65;101376.47;5056038;28;67945;-58
2022/05/20 08:29:03;;;;;;;;;21.33;18.00;;;;;19.92;59.54;101344.16;5061467;28;66180;-58
2022/05/20 08:31:28;;;;;;;;;16.33;10.33;;;;;19.92;59.83;101369.34;5061877;28;59035;-58
2022/05/20 08:33:54;;;;;;;;;18.00;11.67;;;;;19.92;59.85;101381.94;5056653;28;45454;-58
2022/05/20 08:36:20;;;;;;;;;22.00;16.33;;;;;19.93;60.26;101386.38;5059646;28;46051;-58
2022/05/20 08:38:48;;;;;;;;;17.00;13.67;;;;;19.95;60.08;101424.91;5059047;28;45407;-58
2022/05/20 08:41:24;;;;;;;;;21.33;17.33;;;;;19.99;60.50;101513.63;5060202;28;45459;-58
2022/05/20 08:43:50;;;;;;;;;20.33;15.67;;;;;20.05;60.81;101550.09;5056042;28;45411;-58
2022/05/20 08:46:17;;;;;;;;;20.67;16.67;;;;;20.05;60.30;101579.81;5057300;28;68115;-58
2022/05/20 08:48:49;;;;;;;;;22.00;14.67;;;;;20.04;60.76;101564.56;5066207;28;45454;-58
2022/05/20 08:51:15;;;;;;;;;22.67;15.00;;;;;20.00;61.60;101477.56;5054324;28;45321;-58
2022/05/20 08:53:43;;;;;;;;;20.67;15.33;;;;;19.96;61.31;101523.81;5057523;28;48114;-56
2022/05/20 08:56:14;;;;;;;;;19.33;15.33;;;;;19.93;61.76;101426.88;5059067;28;45656;-59
2022/05/20 08:58:47;;;;;;;;;18.33;15.00;;;;;19.86;61.93;101421.09;5061634;28;45335;-57
2022/05/20 09:01:12;;;;;;;;;16.33;14.67;;;;;19.78;61.56;101440.56;5039254;28;45766;-58
2022/05/20 09:03:38;;;;;;;;;20.33;16.00;;;;;19.76;62.27;101436.28;5064533;28;61319;-58
2022/05/20 09:06:15;;;;;;;;;18.00;18.00;;;;;19.74;62.24;101408.56;5055916;28;49476;-58
2022/05/20 09:08:41;;;;;;;;;21.00;18.67;;;;;19.77;62.50;101429.91;5059312;28;45538;-58
2022/05/20 09:11:13;;;;;;;;;20.33;19.33;;;;;19.81;62.80;101437.66;5059612;28;45466;-59
2022/05/20 09:16:26;;;;;;;;;23.33;18.67;;;;;19.88;62.64;101438.06;5054302;28;45387;-58
2022/05/20 09:19:05;;;;;;;;;20.33;19.33;;;;;19.90;62.83;101446.88;5053333;28;45487;-57
2022/05/20 09:21:33;;;;;;;;;21.33;16.33;;;;;19.87;62.79;101435.44;5065883;28;45438;-57
2022/05/20 09:24:03;;;;;;;;;16.67;15.67;;;;;19.85;62.51;101416.69;5042169;28;45637;-57
2022/05/20 09:26:38;;;;;;;;;16.33;15.33;;;;;19.85;62.59;101400.47;5058716;28;47123;-57
2022/05/20 09:29:08;;;;;;;;;19.00;18.00;;;;;19.84;63.07;101382.56;5059481;28;45301;-58
2022/05/20 09:31:39;;;;;;;;;16.00;15.00;;;;;19.79;62.85;101401.81;5065622;27;45554;-58
2022/05/20 09:34:13;;;;;;;;;20.33;17.33;;;;;19.76;62.92;101457.88;5058457;28;45405;-58
2022/05/20 09:36:51;;;;;;;;;19.00;17.33;;;;;19.78;63.23;101553.06;5059617;28;46196;-58
2022/05/20 09:39:33;;;;;;;;;20.00;15.33;;;;;19.79;63.03;101588.03;5059045;28;45752;-58
2022/05/20 09:42:04;;;;;;;;;19.00;17.67;;;;;19.79;63.10;101481.91;5055561;28;45474;-59
2022/05/20 09:44:45;;;;;;;;;18.67;17.00;;;;;19.78;64.31;101358.75;5048057;28;45347;-57
2022/05/20 09:47:33;;;;;;;;;21.67;19.00;;;;;19.75;65.65;101412.97;5054020;28;45518;-57
2022/05/20 09:50:11;;;;;;;;;15.00;15.00;;;;;19.77;65.78;101367.84;5057723;28;45709;-57
2022/05/20 09:52:57;;;;;;;;;18.33;18.00;;;;;19.79;65.48;101299.25;5056113;28;45489;-58
2022/05/20 09:55:36;;;;;;;;;16.00;15.67;;;;;19.77;64.74;101290.41;5059787;28;45509;-58
2022/05/20 09:58:27;;;;;;;;;21.33;14.33;;;;;19.85;65.87;101270.94;5065290;28;47033;-58
2022/05/20 10:01:02;;;;;;;;;26.33;23.67;;;;;19.93;66.34;101264.91;5065141;27;45517;-58
2022/05/20 10:03:40;;;;;;;;;22.00;18.33;;;;;20.10;66.54;101253.59;5046552;28;45520;-58
2022/05/20 10:06:22;;;;;;;;;18.33;17.33;;;;;20.27;66.61;101257.56;5055089;28;46688;-58
2022/05/20 10:09:33;;;;;;;;;22.00;21.00;;;;;20.41;66.73;101266.34;5063517;28;46420;-58
2022/05/20 10:12:17;;;;;;;;;31.00;26.67;;;;;20.59;66.75;101264.78;4973112;28;45553;-58
2022/05/20 10:15:06;;;;;;;;;31.67;29.00;;;;;20.74;66.46;101286.97;4973134;28;45524;-58
2022/05/20 10:17:44;;;;;;;;;44.33;35.00;;;;;20.81;66.28;101311.63;5041240;28;45542;-59
2022/05/20 10:20:37;;;;;;;;;22.00;22.00;;;;;20.76;66.09;101378.72;5063864;28;45646;-59
2022/05/20 10:23:23;;;;;;;;;43.00;36.33;;;;;20.74;66.36;101400.50;5064496;28;45529;-58
2022/05/20 10:26:07;;;;;;;;;21.67;21.67;;;;;20.76;65.79;101393.09;5053919;28;45425;-58
2022/05/20 10:34:28;;;;;;;;;28.00;25.00;;;;;20.94;65.62;101333.06;5063880;28;45509;-57
2022/05/20 10:37:35;;;;;;;;;36.00;32.33;;;;;20.99;65.03;101328.97;5063835;28;59582;-57
2022/05/20 10:40:19;;;;;;;;;27.67;25.33;;;;;21.04;65.12;101322.28;5027470;28;45576;-58
2022/05/20 10:43:21;;;;;;;;;25.67;24.33;;;;;21.10;65.69;101332.59;5063205;28;45606;-57
2022/05/20 10:48:58;;;;;;;;;19.00;18.67;;;;;21.29;65.95;101311.06;5064131;28;45527;-58
2022/05/20 10:51:29;;;;;;;;;31.67;27.00;;;;;21.46;66.11;101306.03;5061594;28;45785;-56
2022/05/20 10:53:55;;;;;;;;;26.33;25.00;;;;;21.68;66.21;101293.31;5062198;28;46225;-58
2022/05/20 10:56:39;;;;;;;;;31.33;26.33;;;;;21.91;65.80;101296.66;5057657;28;45260;-58
2022/05/20 10:59:25;;;;;;;;;33.00;28.33;;;;;22.28;65.89;101320.38;5058287;28;45267;-59
2022/05/20 11:02:00;;;;;;;;;30.67;25.33;;;;;22.69;64.61;101309.44;5062034;28;45242;-59
2022/05/20 11:05:07;;;;;;;;;24.67;24.67;;;;;23.01;64.61;101322.69;5061238;28;45356;-59
2022/05/20 11:07:38;;;;;;;;;22.33;22.00;;;;;23.26;64.76;101332.06;5035980;28;46463;-59
2022/05/20 11:10:22;;;;;;;;;23.00;22.67;;;;;23.42;63.46;101347.72;5070883;28;46779;-58
2022/05/20 11:13:12;;;;;;;;;23.67;20.33;;;;;23.46;63.87;101362.69;5060196;28;45403;-58
2022/05/20 11:16:05;;;;;;;;;20.33;19.00;;;;;23.46;63.25;101376.25;5066211;28;46220;-58
2022/05/20 11:19:15;;;;;;;;;24.67;24.00;;;;;23.42;63.12;101380.28;5044306;28;45467;-58
2022/05/20 11:22:11;;;;;;;;;23.67;21.67;;;;;23.40;62.81;101381.44;5058017;28;45545;-58
2022/05/20 11:24:51;;;;;;;;;23.67;19.67;;;;;23.38;63.04;101383.47;5063040;28;45481;-58
2022/05/20 11:27:38;;;;;;;;;26.67;24.67;;;;;23.35;63.02;101383.72;5059937;28;46373;-58
2022/05/20 11:30:29;;;;;;;;;17.67;17.67;;;;;23.30;62.96;101378.75;5066834;28;45589;-58
2022/05/20 11:33:25;;;;;;;;;25.33;17.00;;;;;23.27;62.83;101363.63;5065545;28;45653;-59
2022/05/20 11:36:21;;;;;;;;;20.67;17.33;;;;;23.25;62.83;101370.19;5056731;28;46533;-58
2022/05/20 11:38:53;;;;;;;;;17.33;16.00;;;;;23.28;63.42;101372.59;5064547;28;47099;-58
2022/05/20 11:41:43;;;;;;;;;16.33;14.67;;;;;23.33;62.41;101380.31;5065408;28;45495;-58
2022/05/20 11:44:36;;;;;;;;;19.00;18.00;;;;;23.29;62.42;101380.59;5066886;28;45752;-58
2022/05/20 11:47:16;;;;;;;;;16.67;16.33;;;;;23.33;62.46;101369.47;5062545;28;46411;-58
2022/05/20 11:49:50;;;;;;;;;15.67;15.67;;;;;23.40;62.12;101365.16;5066737;28;45581;-58
2022/05/20 11:52:48;;;;;;;;;17.33;14.00;;;;;23.48;62.10;101377.97;5069068;28;46622;-58
2022/05/20 11:55:27;;;;;;;;;13.67;13.00;;;;;23.53;62.22;101371.13;5065563;28;45514;-58
2022/05/20 11:58:04;;;;;;;;;17.00;17.00;;;;;23.57;61.96;101348.09;5065813;28;45465;-58
2022/05/20 12:00:31;;;;;;;;;16.00;16.00;;;;;23.59;61.65;101327.06;5066069;28;46214;-58
2022/05/20 12:03:07;;;;;;;;;18.33;16.00;;;;;23.57;61.40;101325.50;5056325;28;45464;-58
2022/05/20 12:05:38;;;;;;;;;14.33;13.00;;;;;23.56;61.58;101334.69;5043907;28;45551;-58
2022/05/20 12:08:03;;;;;;;;;15.00;13.00;;;;;23.55;61.12;101330.25;5064913;28;45467;-58
2022/05/20 12:10:35;;;;;;;;;12.67;12.67;;;;;23.58;61.03;101336.25;5049998;28;47254;-58
2022/05/20 12:13:22;;;;;;;;;15.33;11.33;;;;;23.60;61.25;101344.25;5063065;28;45578;-58